Time;durP1;ratioP1;P1;durP2;ratioP2;P2;SDS_P1;SDS_P2;PMS_P1;PMS_P2;Temp;Humidity;BMP_temperature;BMP_pressure;BME280_temperature;BME280_humidity;BME280_pressure;Samples;Min_cycle;Max_cycle;Signal;HPM_P1;HPM_P2
2023/05/28 00:00:32;;;;;;;16.92;5.90;;;12.10;99.90;;;;;;4975407;28;20040;-93
2023/05/28 00:02:59;;;;;;;18.15;5.85;;;12.10;99.90;;;;;;4976330;28;20085;-93
2023/05/28 00:05:24;;;;;;;11.68;5.82;;;12.20;99.90;;;;;;4972394;28;20085;-94
2023/05/28 00:07:50;;;;;;;13.45;6.03;;;12.20;99.90;;;;;;4982995;28;20026;-93
2023/05/28 00:10:15;;;;;;;17.63;7.10;;;12.30;99.90;;;;;;4975265;28;20486;-93
2023/05/28 00:12:41;;;;;;;10.05;5.05;;;12.30;99.90;;;;;;4988164;28;20108;-94
2023/05/28 00:15:07;;;;;;;13.57;5.80;;;12.30;99.90;;;;;;4972744;28;20098;-94
2023/05/28 00:17:33;;;;;;;12.05;6.43;;;12.20;99.90;;;;;;4981738;28;20019;-92
2023/05/28 00:19:58;;;;;;;12.93;6.00;;;12.20;99.90;;;;;;4975920;28;20034;-94
2023/05/28 00:22:25;;;;;;;17.48;6.13;;;12.10;99.90;;;;;;4976714;28;20091;-93
2023/05/28 00:24:50;;;;;;;14.75;6.07;;;12.10;99.90;;;;;;4971420;28;20027;-93
2023/05/28 00:27:16;;;;;;;16.25;5.60;;;12.10;99.90;;;;;;4961393;28;20049;-94
2023/05/28 00:29:43;;;;;;;14.25;5.85;;;12.00;99.90;;;;;;4976932;28;20128;-94
2023/05/28 00:32:09;;;;;;;13.25;4.88;;;12.00;99.90;;;;;;4975498;28;20018;-93
2023/05/28 00:34:35;;;;;;;16.70;5.55;;;12.00;99.90;;;;;;4976307;28;20053;-92
2023/05/28 00:37:01;;;;;;;16.70;5.47;;;12.00;99.90;;;;;;4984770;28;20513;-92
2023/05/28 00:39:26;;;;;;;12.98;5.13;;;12.00;99.90;;;;;;4982802;28;20124;-93
2023/05/28 00:42:07;;;;;;;10.55;5.13;;;12.00;99.90;;;;;;4976840;28;20070;-93
2023/05/28 00:44:33;;;;;;;10.93;4.38;;;11.90;99.90;;;;;;4974806;28;20065;-92
2023/05/28 00:46:59;;;;;;;12.52;5.25;;;11.90;99.90;;;;;;4978182;28;20100;-93
2023/05/28 00:49:26;;;;;;;13.38;4.88;;;11.90;99.90;;;;;;4974158;28;20041;-93
2023/05/28 00:51:51;;;;;;;12.43;5.03;;;11.90;99.90;;;;;;4978609;28;20018;-93
2023/05/28 00:54:18;;;;;;;13.35;5.03;;;11.90;99.90;;;;;;4975695;28;20502;-92
2023/05/28 00:56:46;;;;;;;13.68;6.25;;;11.80;99.90;;;;;;4989550;28;20031;-92
2023/05/28 00:59:12;;;;;;;14.32;5.80;;;11.80;99.90;;;;;;4978278;28;20042;-93
2023/05/28 01:01:39;;;;;;;12.02;4.95;;;11.80;99.90;;;;;;4985238;28;20025;-92
2023/05/28 01:04:05;;;;;;;12.85;4.88;;;11.80;99.90;;;;;;4981402;28;20081;-92
2023/05/28 01:06:31;;;;;;;12.88;4.82;;;11.70;99.90;;;;;;4981368;28;20030;-92
2023/05/28 01:08:56;;;;;;;10.85;5.22;;;11.60;99.90;;;;;;4970197;28;20121;-94
2023/05/28 01:11:23;;;;;;;10.73;4.80;;;11.60;99.90;;;;;;4975866;28;20022;-93
2023/05/28 01:13:49;;;;;;;13.45;5.38;;;11.60;99.90;;;;;;4966302;28;20121;-93
2023/05/28 01:16:15;;;;;;;12.73;5.30;;;11.60;99.90;;;;;;4966520;28;20487;-93
2023/05/28 01:18:45;;;;;;;17.55;6.18;;;11.50;99.90;;;;;;4972813;28;20038;-93
2023/05/28 01:21:12;;;;;;;14.27;4.95;;;11.50;99.90;;;;;;4976571;28;20124;-93
2023/05/28 01:23:43;;;;;;;16.25;5.45;;;11.40;99.90;;;;;;4982747;28;20026;-93
2023/05/28 01:26:10;;;;;;;11.18;5.07;;;11.40;99.90;;;;;;4967582;28;20095;-93
2023/05/28 01:28:35;;;;;;;14.23;5.78;;;11.30;99.90;;;;;;4972118;28;20132;-93
2023/05/28 01:31:01;;;;;;;17.50;5.68;;;11.30;99.90;;;;;;4975327;28;20058;-93
2023/05/28 01:33:27;;;;;;;14.82;6.03;;;11.30;99.90;;;;;;4971904;28;20030;-93
2023/05/28 01:35:57;;;;;;;13.27;5.57;;;11.20;99.90;;;;;;4975696;28;20038;-93
2023/05/28 01:38:26;;;;;;;21.85;5.53;;;11.20;99.90;;;;;;4982163;28;20077;-93
2023/05/28 01:40:54;;;;;;;16.42;5.97;;;11.20;99.90;;;;;;4975681;28;20038;-93
2023/05/28 01:43:20;;;;;;;16.50;6.43;;;11.20;99.90;;;;;;4974631;28;20038;-93
2023/05/28 01:45:47;;;;;;;16.85;7.75;;;11.10;99.90;;;;;;4972799;28;20045;-94
2023/05/28 01:48:13;;;;;;;15.55;6.55;;;11.20;99.90;;;;;;4972970;28;20022;-93
2023/05/28 01:50:39;;;;;;;16.33;6.00;;;11.10;99.90;;;;;;4963349;28;20037;-92
2023/05/28 01:53:04;;;;;;;19.08;5.88;;;11.10;99.90;;;;;;4961645;28;20033;-92
2023/05/28 01:55:30;;;;;;;19.77;5.82;;;11.00;99.90;;;;;;4973258;28;20038;-94
2023/05/28 01:57:55;;;;;;;18.67;6.68;;;10.90;99.90;;;;;;4974524;28;20022;-93
2023/05/28 02:00:23;;;;;;;20.77;6.10;;;11.00;99.90;;;;;;4967018;28;20499;-93
2023/05/28 02:02:49;;;;;;;20.25;7.25;;;10.90;99.90;;;;;;4979515;28;20018;-92
2023/05/28 02:05:15;;;;;;;17.60;6.15;;;10.80;99.90;;;;;;4965506;28;20529;-93
2023/05/28 02:07:41;;;;;;;14.55;6.32;;;10.80;99.90;;;;;;4980902;28;20085;-92
2023/05/28 02:10:07;;;;;;;16.77;6.80;;;10.70;99.90;;;;;;4975863;28;20394;-93
2023/05/28 02:12:33;;;;;;;17.95;6.20;;;10.70;99.90;;;;;;4966577;28;20546;-93
2023/05/28 02:14:58;;;;;;;14.93;6.72;;;10.70;99.90;;;;;;4966605;28;20030;-93
2023/05/28 02:17:24;;;;;;;18.23;6.70;;;10.60;99.90;;;;;;4959413;28;20050;-93
2023/05/28 02:19:49;;;;;;;21.67;7.40;;;10.60;99.90;;;;;;4984060;28;20034;-92
2023/05/28 02:22:16;;;;;;;22.25;6.93;;;10.50;99.90;;;;;;4960324;28;20072;-93
2023/05/28 02:24:41;;;;;;;15.02;5.30;;;10.60;99.90;;;;;;4975970;28;20441;-93
2023/05/28 02:27:07;;;;;;;13.75;6.07;;;10.50;99.90;;;;;;4983513;28;20018;-92
2023/05/28 02:29:33;;;;;;;21.35;7.10;;;10.50;99.90;;;;;;4985570;28;20386;-93
2023/05/28 02:32:00;;;;;;;21.08;6.68;;;10.50;99.90;;;;;;4993650;28;20026;-93
2023/05/28 02:34:28;;;;;;;16.55;7.68;;;10.40;99.90;;;;;;4985982;28;20060;-93
2023/05/28 02:36:54;;;;;;;15.30;6.25;;;10.40;99.90;;;;;;4967550;28;20035;-92
2023/05/28 02:39:19;;;;;;;15.38;6.30;;;10.40;99.90;;;;;;4977937;28;20042;-92
2023/05/28 02:41:45;;;;;;;17.80;6.15;;;10.30;99.90;;;;;;4979109;28;20022;-92
2023/05/28 02:44:10;;;;;;;23.20;7.32;;;10.30;99.90;;;;;;4976619;28;20030;-93
2023/05/28 02:46:36;;;;;;;18.83;6.85;;;10.30;99.90;;;;;;4970462;28;20065;-93
2023/05/28 02:49:01;;;;;;;23.73;8.13;;;10.20;99.90;;;;;;4966422;28;20026;-94
2023/05/28 02:51:27;;;;;;;19.63;6.70;;;10.30;99.90;;;;;;4986487;28;20027;-93
2023/05/28 02:53:52;;;;;;;19.85;7.00;;;10.30;99.90;;;;;;4975408;28;20026;-93
2023/05/28 02:56:18;;;;;;;19.98;7.43;;;10.30;99.90;;;;;;4977984;28;20030;-94
2023/05/28 02:58:44;;;;;;;21.48;7.20;;;10.30;99.90;;;;;;4991230;28;20393;-93
2023/05/28 03:01:09;;;;;;;19.23;7.45;;;10.20;99.90;;;;;;4983676;28;20243;-93
2023/05/28 03:03:35;;;;;;;16.67;6.82;;;10.20;99.90;;;;;;4980016;28;20077;-93
2023/05/28 03:06:01;;;;;;;23.98;8.10;;;10.20;99.90;;;;;;4992550;28;20034;-93
2023/05/28 03:08:27;;;;;;;22.75;7.65;;;10.20;99.90;;;;;;4978259;28;20026;-93
2023/05/28 03:10:52;;;;;;;21.45;8.25;;;10.20;99.90;;;;;;4975755;28;20033;-93
2023/05/28 03:13:18;;;;;;;19.70;7.13;;;10.10;99.90;;;;;;4977712;28;20034;-93
2023/05/28 03:15:43;;;;;;;17.98;7.82;;;10.10;99.90;;;;;;4976767;28;20084;-92
2023/05/28 03:18:09;;;;;;;17.30;7.05;;;10.00;99.90;;;;;;4978263;28;20022;-93
2023/05/28 03:20:34;;;;;;;20.30;7.45;;;10.00;99.90;;;;;;4987496;28;20037;-93
2023/05/28 03:23:00;;;;;;;23.77;7.95;;;10.00;99.90;;;;;;4962801;28;20027;-93
2023/05/28 03:25:26;;;;;;;20.55;7.03;;;9.90;99.90;;;;;;4976998;28;20065;-93
2023/05/28 03:27:52;;;;;;;21.00;7.57;;;9.90;99.90;;;;;;4978558;28;20026;-92
2023/05/28 03:30:18;;;;;;;21.25;7.57;;;9.80;99.90;;;;;;4969909;28;20026;-92
2023/05/28 03:32:44;;;;;;;22.25;7.22;;;9.90;99.90;;;;;;4976014;28;20026;-92
2023/05/28 03:35:10;;;;;;;22.13;7.47;;;9.80;99.90;;;;;;4977174;28;20089;-92
2023/05/28 03:37:36;;;;;;;19.65;8.30;;;9.80;99.90;;;;;;4985448;28;20058;-93
2023/05/28 03:40:04;;;;;;;20.80;7.10;;;9.90;99.90;;;;;;4975124;28;20038;-93
2023/05/28 03:42:30;;;;;;;20.70;8.13;;;9.90;99.90;;;;;;4974630;28;20030;-93
2023/05/28 03:44:55;;;;;;;24.48;7.50;;;9.80;99.90;;;;;;4975405;28;20084;-92
2023/05/28 03:47:21;;;;;;;18.50;7.95;;;9.80;99.90;;;;;;4969984;28;20023;-93
2023/05/28 03:49:47;;;;;;;25.38;8.05;;;9.80;99.90;;;;;;4985301;28;20041;-92
2023/05/28 03:52:12;;;;;;;23.05;7.85;;;9.80;99.90;;;;;;4979791;28;20390;-93
2023/05/28 03:54:38;;;;;;;25.00;8.38;;;9.80;99.90;;;;;;4962312;28;20038;-92
2023/05/28 03:57:04;;;;;;;20.90;8.23;;;9.80;99.90;;;;;;4974909;28;20034;-93
2023/05/28 03:59:29;;;;;;;22.30;7.55;;;9.80;99.90;;;;;;4970014;28;20535;-92
2023/05/28 04:01:55;;;;;;;24.17;8.52;;;9.80;99.90;;;;;;4976709;28;20026;-94
2023/05/28 04:04:20;;;;;;;20.50;7.45;;;9.80;99.90;;;;;;4977654;28;20042;-92
2023/05/28 04:06:46;;;;;;;17.52;7.18;;;9.90;99.90;;;;;;4983984;28;20067;-93
2023/05/28 04:09:11;;;;;;;27.65;7.68;;;9.90;99.90;;;;;;4974476;28;20029;-92
2023/05/28 04:11:38;;;;;;;21.45;7.68;;;9.90;99.90;;;;;;4984106;28;20026;-94
2023/05/28 04:14:04;;;;;;;26.75;9.40;;;10.00;99.90;;;;;;4978476;28;20034;-93
2023/05/28 04:16:31;;;;;;;23.55;8.68;;;10.00;99.90;;;;;;4966581;28;20030;-93
2023/05/28 04:18:56;;;;;;;20.83;7.20;;;10.10;99.90;;;;;;4960025;28;20509;-94
2023/05/28 04:21:23;;;;;;;25.17;8.13;;;10.10;99.90;;;;;;4977072;28;20030;-92
2023/05/28 04:23:49;;;;;;;21.88;7.78;;;10.30;99.90;;;;;;4973823;28;20018;-93
2023/05/28 04:26:16;;;;;;;20.02;7.63;;;10.30;99.90;;;;;;4976484;28;20401;-93
2023/05/28 04:28:42;;;;;;;24.65;8.00;;;10.40;99.90;;;;;;4976126;28;20026;-92
2023/05/28 04:31:08;;;;;;;19.52;7.97;;;10.40;99.90;;;;;;4977458;28;20022;-93
2023/05/28 04:33:33;;;;;;;18.42;8.25;;;10.50;99.90;;;;;;4973340;28;20097;-93
2023/05/28 04:36:01;;;;;;;18.88;7.85;;;10.60;99.90;;;;;;4971401;28;20026;-94
2023/05/28 04:38:31;;;;;;;17.83;7.03;;;10.70;99.90;;;;;;4989539;28;20132;-94
2023/05/28 04:40:57;;;;;;;21.10;8.15;;;10.80;99.90;;;;;;4992318;28;20450;-93
2023/05/28 04:43:23;;;;;;;18.60;7.80;;;10.80;99.90;;;;;;4974397;28;20037;-93
2023/05/28 04:45:48;;;;;;;17.15;7.43;;;10.90;99.90;;;;;;4970336;28;20035;-93
2023/05/28 04:48:14;;;;;;;20.50;7.75;;;11.00;99.90;;;;;;4974358;28;20060;-94
2023/05/28 04:50:40;;;;;;;15.80;7.82;;;11.10;99.90;;;;;;4976411;28;20035;-93
2023/05/28 04:53:06;;;;;;;18.33;7.85;;;11.20;99.90;;;;;;4980156;28;20041;-93
2023/05/28 04:55:31;;;;;;;18.83;7.38;;;11.40;99.90;;;;;;4980639;28;20034;-94
2023/05/28 04:57:57;;;;;;;15.60;7.00;;;11.70;99.90;;;;;;4973783;28;20046;-93
2023/05/28 05:00:24;;;;;;;20.25;6.47;;;12.10;99.90;;;;;;4991706;28;20041;-94
2023/05/28 05:02:50;;;;;;;15.02;6.88;;;12.50;99.90;;;;;;4981147;28;20046;-93
2023/05/28 05:05:16;;;;;;;16.85;6.57;;;12.90;99.90;;;;;;4996195;28;20038;-93
2023/05/28 05:07:41;;;;;;;15.43;6.22;;;13.20;99.90;;;;;;4976000;28;20093;-94
2023/05/28 05:10:09;;;;;;;17.25;5.97;;;13.40;99.90;;;;;;4977516;28;20125;-93
2023/05/28 05:12:35;;;;;;;15.52;6.13;;;13.60;99.90;;;;;;4973534;28;20027;-93
2023/05/28 05:15:02;;;;;;;18.13;6.72;;;13.80;99.90;;;;;;4975777;28;20096;-92
2023/05/28 05:17:27;;;;;;;15.55;6.18;;;13.80;99.90;;;;;;4966152;28;20038;-93
2023/05/28 05:19:53;;;;;;;19.00;6.65;;;13.70;99.90;;;;;;4963674;28;20042;-93
2023/05/28 05:22:18;;;;;;;21.33;7.88;;;13.70;99.90;;;;;;4964512;28;20030;-93
2023/05/28 05:24:48;;;;;;;21.10;7.20;;;13.60;99.90;;;;;;4975047;28;20038;-93
2023/05/28 05:27:13;;;;;;;17.80;6.32;;;13.60;99.90;;;;;;4964881;28;20027;-93
2023/05/28 05:29:39;;;;;;;24.58;7.38;;;13.60;99.90;;;;;;4972195;28;20457;-94
2023/05/28 05:32:05;;;;;;;19.27;6.70;;;13.70;99.90;;;;;;4972290;28;20486;-92
2023/05/28 05:34:30;;;;;;;18.02;6.25;;;13.90;99.90;;;;;;4967406;28;20060;-93
2023/05/28 05:36:58;;;;;;;24.73;7.47;;;14.20;99.90;;;;;;4970082;28;20022;-93
2023/05/28 05:39:23;;;;;;;19.52;6.38;;;14.60;99.90;;;;;;4960553;28;20039;-92
2023/05/28 05:41:49;;;;;;;14.00;5.93;;;14.90;99.90;;;;;;4957545;28;20034;-92
2023/05/28 05:44:15;;;;;;;15.05;5.55;;;15.00;99.90;;;;;;4957281;28;20029;-91
2023/05/28 05:46:40;;;;;;;17.38;6.15;;;15.10;99.90;;;;;;4973548;28;20038;-92
2023/05/28 05:49:06;;;;;;;16.35;6.95;;;15.00;99.90;;;;;;4979884;28;20030;-92
2023/05/28 05:51:32;;;;;;;15.73;6.22;;;14.90;99.90;;;;;;4971647;28;20030;-91
2023/05/28 05:53:57;;;;;;;13.98;5.88;;;14.80;99.90;;;;;;4975349;28;20054;-92
2023/05/28 05:56:23;;;;;;;18.02;6.47;;;14.70;99.90;;;;;;4978574;28;20014;-92
2023/05/28 05:58:48;;;;;;;16.50;6.97;;;14.70;99.90;;;;;;4979402;28;20081;-92
2023/05/28 06:01:17;;;;;;;20.45;7.25;;;14.70;99.90;;;;;;4977052;28;20526;-93
2023/05/28 06:03:43;;;;;;;17.92;6.57;;;14.70;99.90;;;;;;4976731;28;20558;-92
2023/05/28 06:06:09;;;;;;;16.40;6.68;;;14.60;99.90;;;;;;4976970;28;20058;-92
2023/05/28 06:08:35;;;;;;;13.52;6.68;;;14.60;99.90;;;;;;4979204;28;20030;-92
2023/05/28 06:11:02;;;;;;;17.02;6.63;;;14.50;99.90;;;;;;4984426;28;20027;-92
2023/05/28 06:13:28;;;;;;;15.80;6.80;;;14.50;99.90;;;;;;4971729;28;20054;-92
2023/05/28 06:15:54;;;;;;;18.38;7.32;;;14.50;99.90;;;;;;4967567;28;20022;-92
2023/05/28 06:18:21;;;;;;;18.23;6.47;;;14.50;99.90;;;;;;4970978;28;20042;-92
2023/05/28 06:20:49;;;;;;;17.58;6.95;;;14.50;99.90;;;;;;4978411;28;20038;-93
2023/05/28 06:23:14;;;;;;;15.63;6.43;;;14.60;99.90;;;;;;4979123;28;20053;-92
2023/05/28 06:25:40;;;;;;;18.13;6.10;;;14.70;99.90;;;;;;4975916;28;20438;-93
2023/05/28 06:28:06;;;;;;;19.83;7.35;;;14.80;99.90;;;;;;4965434;28;20026;-92
2023/05/28 06:30:31;;;;;;;19.20;6.75;;;14.90;99.90;;;;;;4969651;28;20062;-92
2023/05/28 06:32:57;;;;;;;13.98;6.60;;;14.90;99.90;;;;;;4966553;28;20490;-92
2023/05/28 06:35:22;;;;;;;24.52;6.70;;;15.00;99.90;;;;;;4971177;28;20050;-92
2023/05/28 06:37:48;;;;;;;13.23;5.90;;;15.00;99.90;;;;;;4991458;28;20023;-92
2023/05/28 06:40:14;;;;;;;24.20;7.70;;;15.10;99.90;;;;;;4960163;28;20042;-92
2023/05/28 06:42:39;;;;;;;20.30;6.95;;;15.10;99.90;;;;;;4958586;28;20026;-92
2023/05/28 06:45:06;;;;;;;20.90;6.95;;;15.10;99.90;;;;;;4968314;28;20039;-93
2023/05/28 06:47:32;;;;;;;13.88;6.53;;;15.20;99.90;;;;;;4971723;28;20034;-94
2023/05/28 06:49:57;;;;;;;15.57;6.63;;;15.30;99.90;;;;;;4977491;28;20022;-93
2023/05/28 06:52:23;;;;;;;17.10;6.90;;;15.30;99.90;;;;;;4963756;28;20487;-94
2023/05/28 06:54:49;;;;;;;15.80;6.60;;;15.30;99.90;;;;;;4960446;28;20074;-93
2023/05/28 06:57:15;;;;;;;18.95;6.72;;;15.30;99.90;;;;;;4958165;28;20019;-94
2023/05/28 06:59:40;;;;;;;18.10;7.07;;;15.20;99.90;;;;;;4958735;28;20034;-94
2023/05/28 07:02:06;;;;;;;17.67;7.20;;;15.20;99.90;;;;;;4971075;28;20106;-94
2023/05/28 07:04:31;;;;;;;17.63;8.00;;;15.20;99.90;;;;;;4974720;28;20077;-94
2023/05/28 07:06:57;;;;;;;17.58;6.95;;;15.20;99.90;;;;;;4966639;28;20027;-94
2023/05/28 07:09:22;;;;;;;15.32;6.53;;;15.10;99.90;;;;;;4981329;28;20037;-93
2023/05/28 07:11:48;;;;;;;15.90;6.82;;;15.20;99.90;;;;;;4995136;28;20022;-94
2023/05/28 07:14:13;;;;;;;18.88;6.70;;;15.20;99.90;;;;;;4980850;28;20026;-94
2023/05/28 07:16:40;;;;;;;13.85;6.30;;;15.30;99.90;;;;;;4995842;28;20041;-92
2023/05/28 07:19:06;;;;;;;17.35;7.45;;;15.40;99.90;;;;;;5003172;28;20045;-93
2023/05/28 07:21:32;;;;;;;23.23;7.53;;;15.70;99.90;;;;;;4999418;28;20080;-93
2023/05/28 07:24:01;;;;;;;23.67;8.50;;;15.90;99.90;;;;;;4983316;28;20117;-95
2023/05/28 07:26:27;;;;;;;15.38;6.82;;;16.10;99.90;;;;;;4982035;28;20077;-92
2023/05/28 07:28:52;;;;;;;18.15;7.18;;;16.30;99.90;;;;;;4986548;28;20026;-93
2023/05/28 07:31:18;;;;;;;16.85;6.63;;;16.50;99.90;;;;;;4984991;28;20123;-93
2023/05/28 07:33:43;;;;;;;21.42;8.23;;;16.70;99.90;;;;;;4998060;28;20981;-93
2023/05/28 07:36:10;;;;;;;16.15;6.22;;;16.80;99.90;;;;;;5003528;28;20022;-94
2023/05/28 07:38:35;;;;;;;12.73;6.22;;;16.80;99.90;;;;;;4983914;28;20141;-94
2023/05/28 07:41:01;;;;;;;13.15;5.78;;;16.90;99.90;;;;;;4982996;28;20530;-94
2023/05/28 07:43:26;;;;;;;18.65;7.95;;;17.00;99.90;;;;;;4981991;28;20053;-94
2023/05/28 07:45:52;;;;;;;14.95;6.22;;;17.10;99.90;;;;;;4972096;28;20403;-92
2023/05/28 07:48:17;;;;;;;18.00;6.65;;;17.20;99.90;;;;;;4975320;28;20501;-91
2023/05/28 07:50:43;;;;;;;12.77;5.53;;;17.40;99.90;;;;;;4982867;28;20459;-93
2023/05/28 07:53:09;;;;;;;16.95;5.70;;;17.60;99.90;;;;;;4974621;28;20062;-93
2023/05/28 07:55:34;;;;;;;11.23;5.22;;;17.80;99.90;;;;;;4971735;28;20121;-94
2023/05/28 07:58:00;;;;;;;19.30;6.70;;;17.90;99.90;;;;;;4973865;28;20620;-93
2023/05/28 08:00:26;;;;;;;17.23;5.65;;;18.10;99.90;;;;;;4981149;28;20038;-94
2023/05/28 08:02:52;;;;;;;14.18;5.88;;;18.30;99.90;;;;;;4977340;28;20057;-94
2023/05/28 08:05:18;;;;;;;11.60;5.50;;;18.50;99.90;;;;;;4979374;28;20065;-94
2023/05/28 08:07:44;;;;;;;17.23;6.75;;;18.70;99.90;;;;;;4977821;28;20042;-94
2023/05/28 08:10:10;;;;;;;12.93;5.18;;;18.80;99.90;;;;;;4990103;28;20121;-94
2023/05/28 08:12:36;;;;;;;13.27;5.20;;;19.00;99.90;;;;;;4983942;28;20049;-93
2023/05/28 08:15:01;;;;;;;14.13;5.28;;;19.10;99.90;;;;;;4982019;28;20026;-93
2023/05/28 08:17:31;;;;;;;11.38;4.88;;;19.30;99.90;;;;;;4981095;28;20037;-94
2023/05/28 08:19:57;;;;;;;11.13;4.45;;;19.50;99.90;;;;;;4970696;28;20438;-94
2023/05/28 08:22:23;;;;;;;12.48;4.13;;;19.60;99.90;;;;;;4980059;28;20031;-93
2023/05/28 08:24:48;;;;;;;11.88;4.40;;;19.70;99.90;;;;;;5005042;28;20444;-93
2023/05/28 08:27:14;;;;;;;10.27;3.80;;;19.70;99.90;;;;;;4982050;28;20038;-93
2023/05/28 08:29:40;;;;;;;14.85;4.80;;;19.90;99.90;;;;;;4994116;28;20033;-94
2023/05/28 08:32:06;;;;;;;10.80;3.50;;;20.10;99.90;;;;;;4983061;28;20026;-93
2023/05/28 08:34:34;;;;;;;9.82;4.00;;;20.20;99.90;;;;;;4990367;28;20153;-92
2023/05/28 08:37:00;;;;;;;12.43;3.90;;;20.30;99.90;;;;;;4971961;28;20077;-92
2023/05/28 08:39:26;;;;;;;10.60;3.42;;;20.40;99.90;;;;;;5000998;28;20030;-93
2023/05/28 08:41:52;;;;;;;10.18;3.80;;;20.30;99.90;;;;;;5001903;28;20041;-92
2023/05/28 08:44:19;;;;;;;9.82;3.28;;;20.30;99.50;;;;;;4968229;28;20031;-92
2023/05/28 08:46:45;;;;;;;10.95;3.15;;;20.20;99.30;;;;;;4993073;28;20030;-94
2023/05/28 08:49:11;;;;;;;10.52;3.25;;;20.10;99.80;;;;;;4976171;28;20030;-93
2023/05/28 08:51:39;;;;;;;7.25;2.83;;;20.30;99.80;;;;;;4985426;28;20045;-92
2023/05/28 08:54:05;;;;;;;6.78;2.45;;;20.40;99.00;;;;;;4981563;28;20022;-93
2023/05/28 08:56:31;;;;;;;10.23;2.20;;;20.50;98.90;;;;;;4982021;28;20037;-93
2023/05/28 08:58:58;;;;;;;9.80;1.98;;;20.60;96.40;;;;;;4981341;28;20470;-93
2023/05/28 09:01:23;;;;;;;5.82;1.85;;;20.70;96.00;;;;;;4985448;28;20046;-93
2023/05/28 09:03:49;;;;;;;6.88;1.70;;;20.90;95.40;;;;;;4979572;28;20045;-93
2023/05/28 09:06:16;;;;;;;6.88;2.72;;;21.00;93.30;;;;;;4991015;28;20029;-93
2023/05/28 09:08:45;;;;;;;7.43;2.40;;;21.10;91.70;;;;;;4984003;28;20029;-93
2023/05/28 09:11:12;;;;;;;8.40;1.88;;;21.20;91.70;;;;;;4986767;28;20108;-93
2023/05/28 09:13:46;;;;;;;7.50;1.95;;;21.40;91.20;;;;;;4966961;28;20030;-93
2023/05/28 09:16:20;;;;;;;7.75;2.03;;;21.50;90.30;;;;;;4991244;28;20490;-94
2023/05/28 09:18:48;;;;;;;6.57;1.98;;;21.50;89.00;;;;;;4975330;28;20022;-94
2023/05/28 09:21:14;;;;;;;6.55;2.00;;;21.40;87.10;;;;;;4987175;28;20065;-93
2023/05/28 09:23:39;;;;;;;9.25;1.88;;;21.20;84.20;;;;;;4993922;28;20042;-92
2023/05/28 09:26:09;;;;;;;8.65;1.55;;;21.30;83.50;;;;;;4981557;28;20030;-95
2023/05/28 09:28:35;;;;;;;8.32;1.77;;;21.30;83.50;;;;;;4979014;28;20031;-94
2023/05/28 09:31:05;;;;;;;7.38;1.80;;;21.30;82.30;;;;;;4971715;28;20121;-93
2023/05/28 09:33:32;;;;;;;6.20;1.83;;;21.40;82.70;;;;;;4979987;28;20084;-92
2023/05/28 09:36:00;;;;;;;7.35;2.00;;;21.40;81.70;;;;;;4978612;28;20038;-94
2023/05/28 09:38:26;;;;;;;11.40;2.22;;;21.50;80.80;;;;;;4971452;28;20019;-94
2023/05/28 09:40:56;;;;;;;5.32;2.15;;;21.60;79.80;;;;;;4977306;28;20034;-93
2023/05/28 09:43:29;;;;;;;9.27;2.25;;;21.60;79.90;;;;;;4976079;28;20041;-92
2023/05/28 09:46:06;;;;;;;5.97;1.88;;;21.70;77.10;;;;;;4985145;28;20026;-92
2023/05/28 09:48:32;;;;;;;8.20;2.50;;;21.70;76.10;;;;;;4971315;28;20040;-91
2023/05/28 09:51:01;;;;;;;8.57;1.95;;;21.70;76.30;;;;;;4971413;28;20030;-92
2023/05/28 09:53:29;;;;;;;7.47;1.90;;;21.80;75.50;;;;;;4991077;28;20030;-93
2023/05/28 09:55:57;;;;;;;8.45;2.38;;;22.00;76.40;;;;;;4976051;28;20026;-93
2023/05/28 09:58:29;;;;;;;8.43;1.92;;;22.10;77.10;;;;;;4977554;28;20030;-93
2023/05/28 10:00:57;;;;;;;6.95;1.52;;;22.40;77.20;;;;;;4979308;28;20041;-93
2023/05/28 10:03:40;;;;;;;10.63;3.40;;;22.70;76.20;;;;;;4972024;28;20085;-93
2023/05/28 10:06:27;;;;;;;5.72;2.30;;;22.90;74.30;;;;;;4974450;28;20546;-92
2023/05/28 10:08:54;;;;;;;6.85;1.70;;;22.90;72.50;;;;;;4969056;28;20446;-93
2023/05/28 10:11:26;;;;;;;7.68;2.00;;;23.00;71.90;;;;;;4979763;28;20084;-93
2023/05/28 10:13:54;;;;;;;5.55;2.00;;;23.10;70.50;;;;;;4979477;28;20054;-93
2023/05/28 10:16:20;;;;;;;7.15;1.85;;;23.10;68.60;;;;;;4977360;28;20026;-93
2023/05/28 10:18:46;;;;;;;14.00;6.40;;;23.00;67.10;;;;;;4978367;28;20030;-93
2023/05/28 10:21:15;;;;;;;7.97;2.42;;;23.10;68.50;;;;;;4992292;28;20098;-93
2023/05/28 10:23:42;;;;;;;7.95;2.20;;;23.20;68.50;;;;;;4971047;28;20053;-94
2023/05/28 10:26:08;;;;;;;7.47;2.20;;;23.10;67.90;;;;;;4988179;28;20173;-93
2023/05/28 10:28:34;;;;;;;6.72;2.17;;;23.20;68.10;;;;;;4969648;28;20026;-92
2023/05/28 10:31:05;;;;;;;6.82;1.88;;;23.20;67.60;;;;;;4964442;28;20040;-93
2023/05/28 10:33:36;;;;;;;6.50;2.10;;;23.20;66.40;;;;;;4972764;28;20030;-93
2023/05/28 10:36:02;;;;;;;7.15;2.25;;;23.20;66.30;;;;;;4979033;28;20046;-93
2023/05/28 10:38:28;;;;;;;8.57;2.03;;;23.10;64.90;;;;;;4972505;28;20026;-92
2023/05/28 10:41:04;;;;;;;8.40;1.77;;;23.00;65.30;;;;;;4980468;28;20061;-93
2023/05/28 10:43:38;;;;;;;6.78;2.50;;;23.00;65.70;;;;;;4981410;28;20030;-93
2023/05/28 10:46:15;;;;;;;7.65;1.95;;;22.90;65.70;;;;;;4978227;28;20055;-92
2023/05/28 10:49:01;;;;;;;6.68;1.90;;;23.00;66.20;;;;;;4967810;28;20027;-93
2023/05/28 10:51:50;;;;;;;7.88;1.98;;;23.00;66.80;;;;;;4974673;28;20072;-93
2023/05/28 10:54:28;;;;;;;7.45;2.10;;;22.90;65.70;;;;;;4982509;28;20027;-95
2023/05/28 10:57:07;;;;;;;9.40;2.25;;;22.80;66.10;;;;;;4972758;28;20026;-94
2023/05/28 10:59:45;;;;;;;6.82;2.83;;;22.80;67.10;;;;;;4983211;28;20065;-95
2023/05/28 11:02:20;;;;;;;7.15;1.95;;;22.80;68.00;;;;;;4984723;28;20052;-95
2023/05/28 11:04:49;;;;;;;8.05;2.03;;;23.00;67.50;;;;;;4969010;28;20062;-94
2023/05/28 11:07:18;;;;;;;9.57;3.03;;;23.00;67.30;;;;;;4968282;28;20436;-95
2023/05/28 11:09:48;;;;;;;7.30;2.15;;;23.10;67.50;;;;;;4979918;28;20057;-95
2023/05/28 11:12:14;;;;;;;4.90;1.83;;;23.40;66.70;;;;;;4999485;28;20044;-94
2023/05/28 11:14:40;;;;;;;7.13;2.20;;;23.50;66.30;;;;;;4985488;28;20027;-93
2023/05/28 11:17:11;;;;;;;7.50;2.50;;;23.40;65.90;;;;;;4980853;28;20031;-94
2023/05/28 11:19:48;;;;;;;6.88;2.28;;;23.20;66.00;;;;;;4968808;28;20169;-95
2023/05/28 11:22:15;;;;;;;6.63;2.10;;;23.10;66.40;;;;;;4981137;28;20410;-95
2023/05/28 11:25:04;;;;;;;8.32;2.17;;;23.20;66.40;;;;;;4980838;28;20026;-93
2023/05/28 11:27:32;;;;;;;9.30;2.25;;;23.20;66.30;;;;;;4978673;28;20027;-94
2023/05/28 11:29:59;;;;;;;9.30;2.80;;;23.30;67.80;;;;;;4999654;28;20068;-94
2023/05/28 11:32:31;;;;;;;7.43;2.35;;;23.40;67.20;;;;;;4982963;28;20027;-95
2023/05/28 11:34:58;;;;;;;7.97;2.50;;;23.50;67.70;;;;;;4996601;28;20414;-94
2023/05/28 11:37:29;;;;;;;8.45;2.60;;;23.50;67.20;;;;;;5000743;28;20064;-94
2023/05/28 11:39:56;;;;;;;8.20;2.00;;;23.50;65.20;;;;;;4969418;28;20042;-93
2023/05/28 11:42:23;;;;;;;8.80;2.45;;;23.50;65.40;;;;;;4968003;28;20034;-94
2023/05/28 11:44:50;;;;;;;6.35;2.22;;;23.40;65.90;;;;;;4981789;28;20061;-95
2023/05/28 11:47:17;;;;;;;7.65;2.25;;;23.50;66.90;;;;;;4978395;28;20027;-94
2023/05/28 11:49:43;;;;;;;8.90;2.25;;;23.50;66.90;;;;;;4981660;28;20487;-93
2023/05/28 11:52:13;;;;;;;7.07;2.58;;;23.50;67.50;;;;;;4978534;28;20031;-93
2023/05/28 11:54:41;;;;;;;8.38;2.25;;;23.50;67.70;;;;;;4986099;28;20478;-93
2023/05/28 11:57:07;;;;;;;8.07;2.10;;;23.50;67.90;;;;;;4985866;28;20140;-94
2023/05/28 11:59:34;;;;;;;7.75;2.05;;;23.60;68.00;;;;;;4984863;28;20062;-94
2023/05/28 12:02:18;;;;;;;6.72;1.63;;;23.80;66.70;;;;;;4980205;28;20026;-94
2023/05/28 12:05:02;;;;;;;7.32;2.22;;;23.80;66.00;;;;;;4998086;28;20037;-94
2023/05/28 12:07:34;;;;;;;6.97;1.88;;;23.80;65.80;;;;;;4973254;28;20571;-94
2023/05/28 12:10:10;;;;;;;6.33;1.97;;;23.80;65.80;;;;;;4987589;28;20022;-95
2023/05/28 12:12:41;;;;;;;5.47;1.77;;;23.80;65.30;;;;;;4970223;28;20113;-94
2023/05/28 12:15:07;;;;;;;5.18;1.83;;;23.90;65.40;;;;;;4967931;28;20027;-95
2023/05/28 12:17:36;;;;;;;7.45;2.33;;;23.90;65.80;;;;;;4978802;28;20138;-94
2023/05/28 12:20:06;;;;;;;4.45;1.70;;;24.00;64.10;;;;;;4990490;28;20038;-94
2023/05/28 12:22:32;;;;;;;7.43;1.92;;;24.00;64.10;;;;;;4984900;28;20026;-94
2023/05/28 12:24:58;;;;;;;8.15;2.58;;;23.90;65.00;;;;;;4972238;28;20046;-93
2023/05/28 12:27:24;;;;;;;6.10;1.85;;;24.00;66.00;;;;;;4977427;28;20451;-93
2023/05/28 12:29:49;;;;;;;10.57;2.47;;;24.10;66.30;;;;;;4980878;28;20027;-93
2023/05/28 12:32:15;;;;;;;12.40;2.28;;;24.20;66.50;;;;;;4988358;28;20049;-93
2023/05/28 12:34:41;;;;;;;8.32;2.20;;;24.20;65.70;;;;;;4988464;28;20456;-93
2023/05/28 12:37:07;;;;;;;6.97;2.40;;;24.40;65.70;;;;;;4966494;28;20031;-94
2023/05/28 12:39:32;;;;;;;7.47;2.30;;;24.50;65.00;;;;;;4998965;28;20038;-93